sensor_id;sensor_type;location;lat;lon;timestamp;temperature;humidity
17452;DHT22;8843;48.838;9.324;2023-03-14T00:02:25;11.70;96.40
17452;DHT22;8843;48.838;9.324;2023-03-14T00:04:55;11.80;96.20
17452;DHT22;8843;48.838;9.324;2023-03-14T00:07:22;11.80;96.40
17452;DHT22;8843;48.838;9.324;2023-03-14T00:09:50;11.70;96.60
17452;DHT22;8843;48.838;9.324;2023-03-14T00:12:17;11.70;96.60
17452;DHT22;8843;48.838;9.324;2023-03-14T00:14:44;11.70;96.40
17452;DHT22;8843;48.838;9.324;2023-03-14T00:17:11;11.70;96.30
17452;DHT22;8843;48.838;9.324;2023-03-14T00:19:39;11.70;96.30
17452;DHT22;8843;48.838;9.324;2023-03-14T00:22:07;11.70;96.40
17452;DHT22;8843;48.838;9.324;2023-03-14T00:24:34;11.70;96.30
17452;DHT22;8843;48.838;9.324;2023-03-14T00:27:01;11.70;96.30
17452;DHT22;8843;48.838;9.324;2023-03-14T00:29:28;11.70;96.20
17452;DHT22;8843;48.838;9.324;2023-03-14T00:31:55;11.70;96.00
17452;DHT22;8843;48.838;9.324;2023-03-14T00:34:22;11.70;96.40
17452;DHT22;8843;48.838;9.324;2023-03-14T00:36:48;11.70;96.20
17452;DHT22;8843;48.838;9.324;2023-03-14T00:39:17;11.70;96.40
17452;DHT22;8843;48.838;9.324;2023-03-14T00:41:43;11.70;96.10
17452;DHT22;8843;48.838;9.324;2023-03-14T00:44:10;11.70;96.30
17452;DHT22;8843;48.838;9.324;2023-03-14T00:46:37;11.70;96.30
17452;DHT22;8843;48.838;9.324;2023-03-14T00:49:04;11.70;96.10
17452;DHT22;8843;48.838;9.324;2023-03-14T00:51:31;11.70;96.10
17452;DHT22;8843;48.838;9.324;2023-03-14T00:53:59;11.70;96.20
17452;DHT22;8843;48.838;9.324;2023-03-14T00:56:27;11.70;96.10
17452;DHT22;8843;48.838;9.324;2023-03-14T00:58:54;11.70;96.10
17452;DHT22;8843;48.838;9.324;2023-03-14T01:01:22;11.70;96.20
17452;DHT22;8843;48.838;9.324;2023-03-14T01:03:51;11.70;96.10
17452;DHT22;8843;48.838;9.324;2023-03-14T01:06:20;11.70;95.90
17452;DHT22;8843;48.838;9.324;2023-03-14T01:08:48;11.70;96.10
17452;DHT22;8843;48.838;9.324;2023-03-14T01:11:16;11.70;95.80
17452;DHT22;8843;48.838;9.324;2023-03-14T01:13:45;11.70;96.10
17452;DHT22;8843;48.838;9.324;2023-03-14T01:16:13;11.70;95.90
17452;DHT22;8843;48.838;9.324;2023-03-14T01:18:42;11.70;96.00
17452;DHT22;8843;48.838;9.324;2023-03-14T01:21:12;11.70;96.30
17452;DHT22;8843;48.838;9.324;2023-03-14T01:23:39;11.70;96.10
17452;DHT22;8843;48.838;9.324;2023-03-14T01:26:08;11.70;96.00
17452;DHT22;8843;48.838;9.324;2023-03-14T01:28:35;11.70;95.90
17452;DHT22;8843;48.838;9.324;2023-03-14T01:31:04;11.60;96.10
17452;DHT22;8843;48.838;9.324;2023-03-14T01:33:31;11.60;96.00
17452;DHT22;8843;48.838;9.324;2023-03-14T01:35:58;11.70;96.10
17452;DHT22;8843;48.838;9.324;2023-03-14T01:38:27;11.60;95.90
17452;DHT22;8843;48.838;9.324;2023-03-14T01:40:54;11.70;96.10
17452;DHT22;8843;48.838;9.324;2023-03-14T01:43:21;11.60;96.10
17452;DHT22;8843;48.838;9.324;2023-03-14T01:46:22;11.60;95.90
17452;DHT22;8843;48.838;9.324;2023-03-14T01:48:57;11.60;96.00
17452;DHT22;8843;48.838;9.324;2023-03-14T01:51:29;11.60;96.00
17452;DHT22;8843;48.838;9.324;2023-03-14T01:54:02;11.60;96.00
17452;DHT22;8843;48.838;9.324;2023-03-14T01:56:33;11.60;96.00
17452;DHT22;8843;48.838;9.324;2023-03-14T01:59:01;11.60;95.70
17452;DHT22;8843;48.838;9.324;2023-03-14T02:01:31;11.60;95.80
17452;DHT22;8843;48.838;9.324;2023-03-14T02:04:01;11.60;96.00
17452;DHT22;8843;48.838;9.324;2023-03-14T02:06:34;11.60;95.80
17452;DHT22;8843;48.838;9.324;2023-03-14T02:09:03;11.60;95.90
17452;DHT22;8843;48.838;9.324;2023-03-14T02:11:30;11.50;95.90
17452;DHT22;8843;48.838;9.324;2023-03-14T02:13:58;11.50;96.00
17452;DHT22;8843;48.838;9.324;2023-03-14T02:16:26;11.50;95.80
17452;DHT22;8843;48.838;9.324;2023-03-14T02:18:54;11.50;95.90
17452;DHT22;8843;48.838;9.324;2023-03-14T02:21:27;11.50;95.80
17452;DHT22;8843;48.838;9.324;2023-03-14T02:24:07;11.50;95.70
17452;DHT22;8843;48.838;9.324;2023-03-14T02:26:38;11.50;95.90
17452;DHT22;8843;48.838;9.324;2023-03-14T02:29:08;11.50;95.90
17452;DHT22;8843;48.838;9.324;2023-03-14T02:31:35;11.50;95.70
17452;DHT22;8843;48.838;9.324;2023-03-14T02:34:03;11.50;95.70
17452;DHT22;8843;48.838;9.324;2023-03-14T02:36:30;11.50;95.80
17452;DHT22;8843;48.838;9.324;2023-03-14T02:39:04;11.40;95.70
17452;DHT22;8843;48.838;9.324;2023-03-14T02:41:34;11.50;95.90
17452;DHT22;8843;48.838;9.324;2023-03-14T02:44:01;11.50;95.70
17452;DHT22;8843;48.838;9.324;2023-03-14T02:46:29;11.40;96.00
17452;DHT22;8843;48.838;9.324;2023-03-14T02:48:59;11.40;96.20
17452;DHT22;8843;48.838;9.324;2023-03-14T02:51:29;11.50;95.80
17452;DHT22;8843;48.838;9.324;2023-03-14T02:53:56;11.40;95.90
17452;DHT22;8843;48.838;9.324;2023-03-14T02:56:23;11.40;95.80
17452;DHT22;8843;48.838;9.324;2023-03-14T02:58:50;11.40;95.80
17452;DHT22;8843;48.838;9.324;2023-03-14T03:01:17;11.40;95.70
17452;DHT22;8843;48.838;9.324;2023-03-14T03:03:45;11.40;95.70
17452;DHT22;8843;48.838;9.324;2023-03-14T03:06:12;11.40;95.70
17452;DHT22;8843;48.838;9.324;2023-03-14T03:08:39;11.40;96.10
17452;DHT22;8843;48.838;9.324;2023-03-14T03:11:06;11.40;95.60
17452;DHT22;8843;48.838;9.324;2023-03-14T03:13:33;11.40;95.60
17452;DHT22;8843;48.838;9.324;2023-03-14T03:16:00;11.40;95.60
17452;DHT22;8843;48.838;9.324;2023-03-14T03:18:27;11.40;95.40
17452;DHT22;8843;48.838;9.324;2023-03-14T03:20:59;11.30;95.60
17452;DHT22;8843;48.838;9.324;2023-03-14T03:23:26;11.30;95.50
17452;DHT22;8843;48.838;9.324;2023-03-14T03:25:53;11.30;95.60
17452;DHT22;8843;48.838;9.324;2023-03-14T03:28:20;11.30;95.40
17452;DHT22;8843;48.838;9.324;2023-03-14T03:30:47;11.30;95.80
17452;DHT22;8843;48.838;9.324;2023-03-14T03:33:14;11.30;95.50
17452;DHT22;8843;48.838;9.324;2023-03-14T03:35:43;11.30;95.60
17452;DHT22;8843;48.838;9.324;2023-03-14T03:38:12;11.30;95.60
17452;DHT22;8843;48.838;9.324;2023-03-14T03:40:39;11.20;95.60
17452;DHT22;8843;48.838;9.324;2023-03-14T03:43:06;11.20;95.60
17452;DHT22;8843;48.838;9.324;2023-03-14T03:45:33;11.20;95.50
17452;DHT22;8843;48.838;9.324;2023-03-14T03:48:00;11.30;95.50
17452;DHT22;8843;48.838;9.324;2023-03-14T03:50:27;11.20;95.40
17452;DHT22;8843;48.838;9.324;2023-03-14T03:52:54;11.20;95.40
17452;DHT22;8843;48.838;9.324;2023-03-14T03:55:22;11.20;95.50
17452;DHT22;8843;48.838;9.324;2023-03-14T03:57:51;11.20;95.30
17452;DHT22;8843;48.838;9.324;2023-03-14T04:00:18;11.20;95.20
17452;DHT22;8843;48.838;9.324;2023-03-14T04:02:45;11.20;95.30
17452;DHT22;8843;48.838;9.324;2023-03-14T04:05:12;11.20;95.20
17452;DHT22;8843;48.838;9.324;2023-03-14T04:07:38;11.20;95.10
17452;DHT22;8843;48.838;9.324;2023-03-14T04:10:06;11.10;95.10
17452;DHT22;8843;48.838;9.324;2023-03-14T04:12:34;11.10;95.00
17452;DHT22;8843;48.838;9.324;2023-03-14T04:15:01;11.20;95.10
17452;DHT22;8843;48.838;9.324;2023-03-14T04:17:28;11.20;94.90
17452;DHT22;8843;48.838;9.324;2023-03-14T04:19:54;11.20;95.00
17452;DHT22;8843;48.838;9.324;2023-03-14T04:22:21;11.20;94.80
17452;DHT22;8843;48.838;9.324;2023-03-14T04:24:48;11.20;94.70
17452;DHT22;8843;48.838;9.324;2023-03-14T04:27:15;11.20;95.20
17452;DHT22;8843;48.838;9.324;2023-03-14T04:29:43;11.20;94.90
17452;DHT22;8843;48.838;9.324;2023-03-14T04:32:10;11.20;94.60
17452;DHT22;8843;48.838;9.324;2023-03-14T04:34:37;11.20;94.60
17452;DHT22;8843;48.838;9.324;2023-03-14T04:37:04;11.20;94.60
17452;DHT22;8843;48.838;9.324;2023-03-14T04:39:31;11.30;94.70
17452;DHT22;8843;48.838;9.324;2023-03-14T04:41:58;11.20;94.60
17452;DHT22;8843;48.838;9.324;2023-03-14T04:44:25;11.20;94.50
17452;DHT22;8843;48.838;9.324;2023-03-14T04:46:53;11.20;94.40
17452;DHT22;8843;48.838;9.324;2023-03-14T04:49:20;11.20;94.50
17452;DHT22;8843;48.838;9.324;2023-03-14T04:51:47;11.20;94.50
17452;DHT22;8843;48.838;9.324;2023-03-14T04:54:16;11.20;94.50
17452;DHT22;8843;48.838;9.324;2023-03-14T04:56:43;11.20;94.50
17452;DHT22;8843;48.838;9.324;2023-03-14T04:59:10;11.20;94.50
17452;DHT22;8843;48.838;9.324;2023-03-14T05:01:36;11.20;94.20
17452;DHT22;8843;48.838;9.324;2023-03-14T05:04:05;11.20;94.20
17452;DHT22;8843;48.838;9.324;2023-03-14T05:06:32;11.20;94.30
17452;DHT22;8843;48.838;9.324;2023-03-14T05:08:58;11.20;94.20
17452;DHT22;8843;48.838;9.324;2023-03-14T05:11:25;11.20;94.10
17452;DHT22;8843;48.838;9.324;2023-03-14T05:13:52;11.20;94.20
17452;DHT22;8843;48.838;9.324;2023-03-14T05:16:19;11.10;94.20
17452;DHT22;8843;48.838;9.324;2023-03-14T05:18:46;11.20;94.30
17452;DHT22;8843;48.838;9.324;2023-03-14T05:21:14;11.20;94.30
17452;DHT22;8843;48.838;9.324;2023-03-14T05:23:41;11.10;94.10
17452;DHT22;8843;48.838;9.324;2023-03-14T05:26:08;11.00;94.00
17452;DHT22;8843;48.838;9.324;2023-03-14T05:28:35;11.10;93.90
17452;DHT22;8843;48.838;9.324;2023-03-14T05:31:06;11.10;94.20
17452;DHT22;8843;48.838;9.324;2023-03-14T05:33:33;11.10;94.10
17452;DHT22;8843;48.838;9.324;2023-03-14T05:36:00;10.80;93.70
17452;DHT22;8843;48.838;9.324;2023-03-14T05:38:29;10.80;93.90
17452;DHT22;8843;48.838;9.324;2023-03-14T05:40:55;10.90;93.90
17452;DHT22;8843;48.838;9.324;2023-03-14T05:43:22;10.90;93.80
17452;DHT22;8843;48.838;9.324;2023-03-14T05:45:49;10.90;93.40
17452;DHT22;8843;48.838;9.324;2023-03-14T05:48:16;10.80;93.60
17452;DHT22;8843;48.838;9.324;2023-03-14T05:50:43;10.90;93.50
17452;DHT22;8843;48.838;9.324;2023-03-14T05:53:10;11.00;93.50
17452;DHT22;8843;48.838;9.324;2023-03-14T05:55:39;11.00;93.90
17452;DHT22;8843;48.838;9.324;2023-03-14T05:58:06;11.00;93.40
17452;DHT22;8843;48.838;9.324;2023-03-14T06:00:33;11.00;93.60
17452;DHT22;8843;48.838;9.324;2023-03-14T06:03:00;11.00;93.50
17452;DHT22;8843;48.838;9.324;2023-03-14T06:05:26;11.00;93.40
17452;DHT22;8843;48.838;9.324;2023-03-14T06:07:53;11.10;93.80
17452;DHT22;8843;48.838;9.324;2023-03-14T06:10:20;11.10;93.60
17452;DHT22;8843;48.838;9.324;2023-03-14T06:12:48;11.00;93.70
17452;DHT22;8843;48.838;9.324;2023-03-14T06:15:15;10.90;93.40
17452;DHT22;8843;48.838;9.324;2023-03-14T06:17:42;11.00;93.70
17452;DHT22;8843;48.838;9.324;2023-03-14T06:20:10;11.00;93.90
17452;DHT22;8843;48.838;9.324;2023-03-14T06:22:37;11.00;93.40
17452;DHT22;8843;48.838;9.324;2023-03-14T06:25:05;11.00;93.40
17452;DHT22;8843;48.838;9.324;2023-03-14T06:27:32;11.00;93.50
17452;DHT22;8843;48.838;9.324;2023-03-14T06:30:01;11.00;93.40
17452;DHT22;8843;48.838;9.324;2023-03-14T06:32:28;11.00;92.90
17452;DHT22;8843;48.838;9.324;2023-03-14T06:34:55;11.10;93.90
17452;DHT22;8843;48.838;9.324;2023-03-14T06:37:22;11.20;93.50
17452;DHT22;8843;48.838;9.324;2023-03-14T06:39:50;11.10;93.00
17452;DHT22;8843;48.838;9.324;2023-03-14T06:42:17;11.50;93.00
17452;DHT22;8843;48.838;9.324;2023-03-14T06:44:43;10.80;92.20
17452;DHT22;8843;48.838;9.324;2023-03-14T06:47:12;10.60;92.70
17452;DHT22;8843;48.838;9.324;2023-03-14T06:49:39;10.60;92.80
17452;DHT22;8843;48.838;9.324;2023-03-14T06:52:05;10.80;92.90
17452;DHT22;8843;48.838;9.324;2023-03-14T06:54:33;10.70;92.70
17452;DHT22;8843;48.838;9.324;2023-03-14T06:56:59;10.70;92.80
17452;DHT22;8843;48.838;9.324;2023-03-14T06:59:26;10.60;92.90
17452;DHT22;8843;48.838;9.324;2023-03-14T07:01:53;10.60;92.90
17452;DHT22;8843;48.838;9.324;2023-03-14T07:04:21;10.60;93.10
17452;DHT22;8843;48.838;9.324;2023-03-14T07:06:48;10.60;93.10
17452;DHT22;8843;48.838;9.324;2023-03-14T07:09:15;10.60;93.10
17452;DHT22;8843;48.838;9.324;2023-03-14T07:11:42;10.70;93.10
17452;DHT22;8843;48.838;9.324;2023-03-14T07:14:09;10.60;93.30
17452;DHT22;8843;48.838;9.324;2023-03-14T07:16:36;10.60;93.50
17452;DHT22;8843;48.838;9.324;2023-03-14T07:19:03;10.70;93.50
17452;DHT22;8843;48.838;9.324;2023-03-14T07:21:32;10.70;93.60
17452;DHT22;8843;48.838;9.324;2023-03-14T07:24:00;10.70;93.70
17452;DHT22;8843;48.838;9.324;2023-03-14T07:26:27;10.70;94.20
17452;DHT22;8843;48.838;9.324;2023-03-14T07:28:54;10.80;94.00
17452;DHT22;8843;48.838;9.324;2023-03-14T07:31:21;10.80;93.90
17452;DHT22;8843;48.838;9.324;2023-03-14T07:33:47;10.90;94.50
17452;DHT22;8843;48.838;9.324;2023-03-14T07:36:14;10.90;94.80
17452;DHT22;8843;48.838;9.324;2023-03-14T07:38:43;11.00;94.80
17452;DHT22;8843;48.838;9.324;2023-03-14T07:41:10;11.00;94.80
17452;DHT22;8843;48.838;9.324;2023-03-14T07:43:37;11.30;93.10
17452;DHT22;8843;48.838;9.324;2023-03-14T07:46:04;11.30;93.40
17452;DHT22;8843;48.838;9.324;2023-03-14T07:48:31;11.40;92.60
17452;DHT22;8843;48.838;9.324;2023-03-14T07:50:58;11.50;91.90
17452;DHT22;8843;48.838;9.324;2023-03-14T07:53:25;11.60;93.10
17452;DHT22;8843;48.838;9.324;2023-03-14T07:55:54;11.80;93.60
17452;DHT22;8843;48.838;9.324;2023-03-14T07:58:21;11.70;94.20
17452;DHT22;8843;48.838;9.324;2023-03-14T08:00:48;11.70;94.20
17452;DHT22;8843;48.838;9.324;2023-03-14T08:03:16;11.90;92.70
17452;DHT22;8843;48.838;9.324;2023-03-14T08:05:43;12.60;91.70
17452;DHT22;8843;48.838;9.324;2023-03-14T08:08:10;12.60;91.60
17452;DHT22;8843;48.838;9.324;2023-03-14T08:10:37;12.30;91.90
17452;DHT22;8843;48.838;9.324;2023-03-14T08:13:05;12.30;91.60
17452;DHT22;8843;48.838;9.324;2023-03-14T08:15:32;12.40;91.30
17452;DHT22;8843;48.838;9.324;2023-03-14T08:17:59;12.10;91.80
17452;DHT22;8843;48.838;9.324;2023-03-14T08:20:27;12.10;92.40
17452;DHT22;8843;48.838;9.324;2023-03-14T08:22:56;12.10;92.70
17452;DHT22;8843;48.838;9.324;2023-03-14T08:25:24;12.00;92.80
17452;DHT22;8843;48.838;9.324;2023-03-14T08:27:50;12.10;93.00
17452;DHT22;8843;48.838;9.324;2023-03-14T08:30:20;12.10;92.80
17452;DHT22;8843;48.838;9.324;2023-03-14T08:32:47;12.10;92.70
17452;DHT22;8843;48.838;9.324;2023-03-14T08:35:14;12.20;92.10
17452;DHT22;8843;48.838;9.324;2023-03-14T08:37:41;12.30;92.20
17452;DHT22;8843;48.838;9.324;2023-03-14T08:40:10;12.40;92.20
17452;DHT22;8843;48.838;9.324;2023-03-14T08:42:37;12.40;91.90
17452;DHT22;8843;48.838;9.324;2023-03-14T08:45:06;12.30;91.70
17452;DHT22;8843;48.838;9.324;2023-03-14T08:47:34;12.40;92.40
17452;DHT22;8843;48.838;9.324;2023-03-14T08:50:02;12.50;92.60
17452;DHT22;8843;48.838;9.324;2023-03-14T08:52:29;12.70;91.40
17452;DHT22;8843;48.838;9.324;2023-03-14T08:54:57;12.70;91.20
17452;DHT22;8843;48.838;9.324;2023-03-14T08:57:24;12.70;91.20
17452;DHT22;8843;48.838;9.324;2023-03-14T08:59:53;12.70;90.70
17452;DHT22;8843;48.838;9.324;2023-03-14T09:02:21;12.70;90.30
17452;DHT22;8843;48.838;9.324;2023-03-14T09:04:49;12.70;89.80
17452;DHT22;8843;48.838;9.324;2023-03-14T09:07:16;12.70;89.00
17452;DHT22;8843;48.838;9.324;2023-03-14T09:09:44;12.70;89.90
17452;DHT22;8843;48.838;9.324;2023-03-14T09:12:11;12.70;90.30
17452;DHT22;8843;48.838;9.324;2023-03-14T09:14:38;12.80;90.20
17452;DHT22;8843;48.838;9.324;2023-03-14T09:17:05;12.70;89.40
17452;DHT22;8843;48.838;9.324;2023-03-14T09:19:33;12.80;88.10
17452;DHT22;8843;48.838;9.324;2023-03-14T09:22:01;12.80;88.20
17452;DHT22;8843;48.838;9.324;2023-03-14T09:24:28;12.80;89.20
17452;DHT22;8843;48.838;9.324;2023-03-14T09:26:55;12.80;88.40
17452;DHT22;8843;48.838;9.324;2023-03-14T09:29:22;12.70;88.60
17452;DHT22;8843;48.838;9.324;2023-03-14T09:31:49;12.70;89.00
17452;DHT22;8843;48.838;9.324;2023-03-14T09:34:16;12.70;89.00
17452;DHT22;8843;48.838;9.324;2023-03-14T09:36:44;12.70;89.00
17452;DHT22;8843;48.838;9.324;2023-03-14T09:39:12;12.80;88.40
17452;DHT22;8843;48.838;9.324;2023-03-14T09:41:41;12.80;88.40
17452;DHT22;8843;48.838;9.324;2023-03-14T09:44:13;12.80;89.20
17452;DHT22;8843;48.838;9.324;2023-03-14T09:46:43;12.80;89.80
17452;DHT22;8843;48.838;9.324;2023-03-14T09:49:19;12.90;88.90
17452;DHT22;8843;48.838;9.324;2023-03-14T09:51:49;13.00;88.80
17452;DHT22;8843;48.838;9.324;2023-03-14T09:54:28;13.20;88.00
17452;DHT22;8843;48.838;9.324;2023-03-14T09:56:56;13.30;87.00
17452;DHT22;8843;48.838;9.324;2023-03-14T09:59:23;13.10;87.80
17452;DHT22;8843;48.838;9.324;2023-03-14T10:01:52;13.10;87.90
17452;DHT22;8843;48.838;9.324;2023-03-14T10:04:22;13.10;87.90
17452;DHT22;8843;48.838;9.324;2023-03-14T10:06:49;13.00;87.60
17452;DHT22;8843;48.838;9.324;2023-03-14T10:09:21;13.10;87.50
17452;DHT22;8843;48.838;9.324;2023-03-14T10:11:53;13.10;87.40
17452;DHT22;8843;48.838;9.324;2023-03-14T10:14:44;13.20;86.80
17452;DHT22;8843;48.838;9.324;2023-03-14T10:17:12;13.20;87.20
17452;DHT22;8843;48.838;9.324;2023-03-14T10:19:51;13.30;87.00
17452;DHT22;8843;48.838;9.324;2023-03-14T10:22:19;13.60;88.10
17452;DHT22;8843;48.838;9.324;2023-03-14T10:24:52;13.90;86.70
17452;DHT22;8843;48.838;9.324;2023-03-14T10:27:21;14.10;87.70
17452;DHT22;8843;48.838;9.324;2023-03-14T10:29:53;14.30;86.90
17452;DHT22;8843;48.838;9.324;2023-03-14T10:32:23;14.50;85.90
17452;DHT22;8843;48.838;9.324;2023-03-14T10:35:07;14.60;84.70
17452;DHT22;8843;48.838;9.324;2023-03-14T10:37:35;14.50;85.20
17452;DHT22;8843;48.838;9.324;2023-03-14T10:40:05;14.80;84.20
17452;DHT22;8843;48.838;9.324;2023-03-14T10:42:33;14.70;83.10
17452;DHT22;8843;48.838;9.324;2023-03-14T10:45:02;14.60;81.70
17452;DHT22;8843;48.838;9.324;2023-03-14T10:47:32;14.30;81.60
17452;DHT22;8843;48.838;9.324;2023-03-14T10:50:22;14.20;82.10
17452;DHT22;8843;48.838;9.324;2023-03-14T10:52:50;14.10;82.20
17452;DHT22;8843;48.838;9.324;2023-03-14T10:55:20;14.10;81.30
17452;DHT22;8843;48.838;9.324;2023-03-14T10:57:47;14.00;81.70
17452;DHT22;8843;48.838;9.324;2023-03-14T11:00:17;14.00;81.90
17452;DHT22;8843;48.838;9.324;2023-03-14T11:03:02;14.00;81.90
17452;DHT22;8843;48.838;9.324;2023-03-14T11:05:34;13.90;79.50
17452;DHT22;8843;48.838;9.324;2023-03-14T11:08:08;13.70;80.10
17452;DHT22;8843;48.838;9.324;2023-03-14T11:10:39;13.70;80.50
17452;DHT22;8843;48.838;9.324;2023-03-14T11:13:16;13.60;81.00
17452;DHT22;8843;48.838;9.324;2023-03-14T11:15:51;13.50;82.00
17452;DHT22;8843;48.838;9.324;2023-03-14T11:18:42;13.50;81.70
17452;DHT22;8843;48.838;9.324;2023-03-14T11:21:14;13.40;83.20
17452;DHT22;8843;48.838;9.324;2023-03-14T11:23:52;13.40;81.60
17452;DHT22;8843;48.838;9.324;2023-03-14T11:26:27;13.30;82.30
17452;DHT22;8843;48.838;9.324;2023-03-14T11:29:07;13.30;82.00
17452;DHT22;8843;48.838;9.324;2023-03-14T11:31:39;13.20;82.90
17452;DHT22;8843;48.838;9.324;2023-03-14T11:34:13;13.10;83.80
17452;DHT22;8843;48.838;9.324;2023-03-14T11:36:46;13.10;85.20
17452;DHT22;8843;48.838;9.324;2023-03-14T11:39:17;13.10;86.50
17452;DHT22;8843;48.838;9.324;2023-03-14T11:41:47;13.00;86.50
17452;DHT22;8843;48.838;9.324;2023-03-14T11:44:17;12.90;86.40
17452;DHT22;8843;48.838;9.324;2023-03-14T11:46:50;12.90;87.60
17452;DHT22;8843;48.838;9.324;2023-03-14T11:49:28;12.80;87.70
17452;DHT22;8843;48.838;9.324;2023-03-14T11:51:58;12.70;88.50
17452;DHT22;8843;48.838;9.324;2023-03-14T11:54:34;12.60;88.50
17452;DHT22;8843;48.838;9.324;2023-03-14T11:57:10;12.60;88.70
17452;DHT22;8843;48.838;9.324;2023-03-14T11:59:45;12.60;88.90
17452;DHT22;8843;48.838;9.324;2023-03-14T12:02:21;12.60;88.70
17452;DHT22;8843;48.838;9.324;2023-03-14T12:05:00;12.50;88.90
17452;DHT22;8843;48.838;9.324;2023-03-14T12:07:35;12.50;89.50
17452;DHT22;8843;48.838;9.324;2023-03-14T12:10:06;12.50;89.70
17452;DHT22;8843;48.838;9.324;2023-03-14T12:12:35;12.50;90.10
17452;DHT22;8843;48.838;9.324;2023-03-14T12:15:04;12.50;90.30
17452;DHT22;8843;48.838;9.324;2023-03-14T12:17:35;12.40;90.40
17452;DHT22;8843;48.838;9.324;2023-03-14T12:20:05;12.40;90.30
17452;DHT22;8843;48.838;9.324;2023-03-14T12:22:43;12.40;90.30
17452;DHT22;8843;48.838;9.324;2023-03-14T12:25:16;12.40;90.20
17452;DHT22;8843;48.838;9.324;2023-03-14T12:28:11;12.50;90.20
17452;DHT22;8843;48.838;9.324;2023-03-14T12:30:42;12.50;90.60
17452;DHT22;8843;48.838;9.324;2023-03-14T12:33:33;12.40;90.60
17452;DHT22;8843;48.838;9.324;2023-03-14T12:36:11;12.30;90.60
17452;DHT22;8843;48.838;9.324;2023-03-14T12:41:44;12.30;91.10
17452;DHT22;8843;48.838;9.324;2023-03-14T12:44:43;12.40;91.00
17452;DHT22;8843;48.838;9.324;2023-03-14T12:47:47;12.30;90.30
17452;DHT22;8843;48.838;9.324;2023-03-14T12:50:21;12.40;89.60
17452;DHT22;8843;48.838;9.324;2023-03-14T12:55:58;12.50;89.50
17452;DHT22;8843;48.838;9.324;2023-03-14T12:58:32;12.50;83.60
17452;DHT22;8843;48.838;9.324;2023-03-14T13:01:04;12.60;85.20
17452;DHT22;8843;48.838;9.324;2023-03-14T13:03:42;12.70;82.90
17452;DHT22;8843;48.838;9.324;2023-03-14T13:06:11;12.70;81.40
17452;DHT22;8843;48.838;9.324;2023-03-14T13:08:40;12.80;83.00
17452;DHT22;8843;48.838;9.324;2023-03-14T13:11:10;12.80;80.10
17452;DHT22;8843;48.838;9.324;2023-03-14T13:13:42;12.80;82.40
17452;DHT22;8843;48.838;9.324;2023-03-14T13:16:16;13.00;84.90
17452;DHT22;8843;48.838;9.324;2023-03-14T13:18:44;13.20;82.90
17452;DHT22;8843;48.838;9.324;2023-03-14T13:21:14;13.30;82.80
17452;DHT22;8843;48.838;9.324;2023-03-14T13:23:55;13.40;82.60
17452;DHT22;8843;48.838;9.324;2023-03-14T13:26:24;13.60;82.00
17452;DHT22;8843;48.838;9.324;2023-03-14T13:28:51;13.50;81.10
17452;DHT22;8843;48.838;9.324;2023-03-14T13:31:23;13.40;82.30
17452;DHT22;8843;48.838;9.324;2023-03-14T13:33:57;13.50;77.70
17452;DHT22;8843;48.838;9.324;2023-03-14T13:36:25;13.40;82.00
17452;DHT22;8843;48.838;9.324;2023-03-14T13:38:56;13.50;81.40
17452;DHT22;8843;48.838;9.324;2023-03-14T13:41:24;13.40;76.00
17452;DHT22;8843;48.838;9.324;2023-03-14T13:43:51;13.00;77.60
17452;DHT22;8843;48.838;9.324;2023-03-14T13:46:24;12.70;78.70
17452;DHT22;8843;48.838;9.324;2023-03-14T13:48:54;12.60;79.30
17452;DHT22;8843;48.838;9.324;2023-03-14T13:51:22;12.40;77.60
17452;DHT22;8843;48.838;9.324;2023-03-14T13:53:52;12.30;77.50
17452;DHT22;8843;48.838;9.324;2023-03-14T13:56:20;12.30;76.50
17452;DHT22;8843;48.838;9.324;2023-03-14T13:58:48;12.20;75.10
17452;DHT22;8843;48.838;9.324;2023-03-14T14:01:17;12.20;77.60
17452;DHT22;8843;48.838;9.324;2023-03-14T14:03:48;12.10;76.40
17452;DHT22;8843;48.838;9.324;2023-03-14T14:06:34;12.10;73.90
17452;DHT22;8843;48.838;9.324;2023-03-14T14:09:09;12.00;72.80
17452;DHT22;8843;48.838;9.324;2023-03-14T14:11:41;12.00;73.20
17452;DHT22;8843;48.838;9.324;2023-03-14T14:14:12;11.90;72.00
17452;DHT22;8843;48.838;9.324;2023-03-14T14:16:42;11.90;76.00
17452;DHT22;8843;48.838;9.324;2023-03-14T14:19:11;11.90;75.00
17452;DHT22;8843;48.838;9.324;2023-03-14T14:21:40;11.90;74.60
17452;DHT22;8843;48.838;9.324;2023-03-14T14:24:08;11.70;71.10
17452;DHT22;8843;48.838;9.324;2023-03-14T14:26:40;11.70;70.40
17452;DHT22;8843;48.838;9.324;2023-03-14T14:29:16;11.70;69.60
17452;DHT22;8843;48.838;9.324;2023-03-14T14:31:48;11.60;63.70
17452;DHT22;8843;48.838;9.324;2023-03-14T14:34:26;11.30;63.60
17452;DHT22;8843;48.838;9.324;2023-03-14T14:36:53;11.40;65.20
17452;DHT22;8843;48.838;9.324;2023-03-14T14:39:23;11.40;63.20
17452;DHT22;8843;48.838;9.324;2023-03-14T14:41:52;11.40;63.60
17452;DHT22;8843;48.838;9.324;2023-03-14T14:44:30;11.40;63.20
17452;DHT22;8843;48.838;9.324;2023-03-14T14:46:58;11.40;64.30
17452;DHT22;8843;48.838;9.324;2023-03-14T14:49:30;11.40;65.50
17452;DHT22;8843;48.838;9.324;2023-03-14T14:52:02;11.40;63.60
17452;DHT22;8843;48.838;9.324;2023-03-14T14:54:37;11.20;65.30
17452;DHT22;8843;48.838;9.324;2023-03-14T14:57:15;11.40;66.00
17452;DHT22;8843;48.838;9.324;2023-03-14T14:59:44;11.30;61.20
17452;DHT22;8843;48.838;9.324;2023-03-14T15:02:28;11.60;65.50
17452;DHT22;8843;48.838;9.324;2023-03-14T15:04:57;11.50;65.30
17452;DHT22;8843;48.838;9.324;2023-03-14T15:07:24;11.50;65.10
17452;DHT22;8843;48.838;9.324;2023-03-14T15:09:50;11.40;62.70
17452;DHT22;8843;48.838;9.324;2023-03-14T15:12:17;11.30;63.30
17452;DHT22;8843;48.838;9.324;2023-03-14T15:14:45;11.30;64.10
17452;DHT22;8843;48.838;9.324;2023-03-14T15:17:13;11.30;64.30
17452;DHT22;8843;48.838;9.324;2023-03-14T15:19:40;11.30;64.40
17452;DHT22;8843;48.838;9.324;2023-03-14T15:22:12;11.20;65.80
17452;DHT22;8843;48.838;9.324;2023-03-14T15:24:40;11.30;66.30
17452;DHT22;8843;48.838;9.324;2023-03-14T15:27:13;11.30;63.60
17452;DHT22;8843;48.838;9.324;2023-03-14T15:29:40;11.20;63.90
17452;DHT22;8843;48.838;9.324;2023-03-14T15:32:10;11.20;64.20
17452;DHT22;8843;48.838;9.324;2023-03-14T15:34:37;11.20;67.20
17452;DHT22;8843;48.838;9.324;2023-03-14T15:37:04;11.30;63.40
17452;DHT22;8843;48.838;9.324;2023-03-14T15:39:34;11.30;64.50
17452;DHT22;8843;48.838;9.324;2023-03-14T15:42:01;11.30;66.00
17452;DHT22;8843;48.838;9.324;2023-03-14T15:44:28;11.30;64.10
17452;DHT22;8843;48.838;9.324;2023-03-14T15:46:55;11.30;66.10
17452;DHT22;8843;48.838;9.324;2023-03-14T15:49:22;11.30;64.50
17452;DHT22;8843;48.838;9.324;2023-03-14T15:51:49;11.20;63.80
17452;DHT22;8843;48.838;9.324;2023-03-14T15:54:16;11.20;67.30
17452;DHT22;8843;48.838;9.324;2023-03-14T15:56:44;11.20;62.70
17452;DHT22;8843;48.838;9.324;2023-03-14T15:59:11;11.20;67.30
17452;DHT22;8843;48.838;9.324;2023-03-14T16:01:38;11.20;64.50
17452;DHT22;8843;48.838;9.324;2023-03-14T16:04:05;11.20;64.80
17452;DHT22;8843;48.838;9.324;2023-03-14T16:06:32;11.20;63.80